createdAt,value
2023-01-11T00:01:06.887Z,0.60
2023-01-11T00:03:35.388Z,0.57
2023-01-11T00:06:07.902Z,0.60
2023-01-11T00:08:36.051Z,0.90
2023-01-11T00:11:04.457Z,0.80
2023-01-11T00:13:33.077Z,0.63
2023-01-11T00:16:07.449Z,0.50
2023-01-11T00:18:36.671Z,0.70
2023-01-11T00:21:07.090Z,0.63
2023-01-11T00:23:35.955Z,0.50
2023-01-11T00:26:04.924Z,0.70
2023-01-11T00:28:33.352Z,0.60
2023-01-11T00:31:02.296Z,0.80
2023-01-11T00:33:30.475Z,0.80
2023-01-11T00:35:58.470Z,0.57
2023-01-11T00:38:51.317Z,0.63
2023-01-11T00:41:39.436Z,0.50
2023-01-11T00:44:28.155Z,0.77
2023-01-11T00:47:13.586Z,1.17
2023-01-11T00:49:42.114Z,0.50
2023-01-11T00:52:10.893Z,0.83
2023-01-11T00:54:42.053Z,0.70
2023-01-11T00:57:10.496Z,0.60
2023-01-11T00:59:40.551Z,0.63
2023-01-11T01:02:10.941Z,0.60
2023-01-11T01:04:39.882Z,0.70
2023-01-11T01:07:08.601Z,1.00
2023-01-11T01:09:36.683Z,0.60
2023-01-11T01:12:09.090Z,0.50
2023-01-11T01:14:36.968Z,0.47
2023-01-11T01:17:08.799Z,0.50
2023-01-11T01:19:39.371Z,0.73
2023-01-11T01:22:07.441Z,0.63
2023-01-11T01:24:35.948Z,0.77
2023-01-11T01:27:05.277Z,0.73
2023-01-11T01:29:33.404Z,0.70
2023-01-11T01:32:01.381Z,0.43
2023-01-11T01:34:29.632Z,0.70
2023-01-11T01:36:57.670Z,0.80
2023-01-11T01:39:25.717Z,0.70
2023-01-11T01:41:53.689Z,0.57
2023-01-11T01:45:07.633Z,0.50
2023-01-11T01:47:46.043Z,0.63
2023-01-11T01:50:21.429Z,0.73
2023-01-11T01:52:56.972Z,0.50
2023-01-11T01:55:30.896Z,0.73
2023-01-11T01:58:01.087Z,0.50
2023-01-11T02:00:30.636Z,0.73
2023-01-11T02:03:01.531Z,0.80
2023-01-11T02:05:29.837Z,0.50
2023-01-11T02:08:00.860Z,0.57
2023-01-11T02:10:29.150Z,0.60
2023-01-11T02:13:01.348Z,0.50
2023-01-11T02:15:31.321Z,0.57
2023-01-11T02:17:59.431Z,0.50
2023-01-11T02:20:48.772Z,0.43
2023-01-11T02:23:52.320Z,0.60
2023-01-11T02:26:59.050Z,0.73
2023-01-11T02:29:41.704Z,0.43
2023-01-11T02:32:26.501Z,0.40
2023-01-11T02:35:11.690Z,0.27
2023-01-11T02:37:52.323Z,0.50
2023-01-11T02:40:28.475Z,0.63
2023-01-11T02:43:24.017Z,0.40
2023-01-11T02:46:03.286Z,0.40
2023-01-11T02:48:39.320Z,0.50
2023-01-11T02:51:13.865Z,0.77
2023-01-11T02:53:47.374Z,0.50
2023-01-11T02:56:19.925Z,0.70
2023-01-11T02:58:51.901Z,0.50
2023-01-11T03:01:22.927Z,0.70
2023-01-11T03:03:51.156Z,0.70
2023-01-11T03:06:23.156Z,0.47
2023-01-11T03:09:23.807Z,0.50
2023-01-11T03:12:25.123Z,0.40
2023-01-11T03:15:09.007Z,0.50
2023-01-11T03:17:52.223Z,0.47
2023-01-11T03:20:25.441Z,0.50
2023-01-11T03:23:11.538Z,0.47
2023-01-11T03:25:53.928Z,0.23
2023-01-11T03:28:33.587Z,0.50
2023-01-11T03:31:07.705Z,0.43
2023-01-11T03:33:44.646Z,0.37
2023-01-11T03:36:20.749Z,0.30
2023-01-11T03:38:54.719Z,0.30
2023-01-11T03:41:27.976Z,0.67
2023-01-11T03:44:00.560Z,0.30
2023-01-11T03:46:32.206Z,0.63
2023-01-11T03:49:06.266Z,0.50
2023-01-11T03:51:39.817Z,0.37
2023-01-11T03:54:12.652Z,0.47
2023-01-11T03:56:48.593Z,0.47
2023-01-11T03:59:16.759Z,0.40
2023-01-11T04:01:45.409Z,0.47
2023-01-11T04:04:14.816Z,0.40
2023-01-11T04:06:43.041Z,0.40
2023-01-11T04:09:11.089Z,0.50
2023-01-11T04:11:39.161Z,0.50
2023-01-11T04:14:07.190Z,0.63
2023-01-11T04:16:35.463Z,0.40
2023-01-11T04:19:03.708Z,0.40
2023-01-11T04:21:32.992Z,0.50
2023-01-11T04:24:01.109Z,0.50
2023-01-11T04:26:29.213Z,0.10
2023-01-11T04:28:57.339Z,0.40
2023-01-11T04:31:25.494Z,0.30
2023-01-11T04:33:53.549Z,0.40
2023-01-11T04:36:21.562Z,0.37
2023-01-11T04:38:50.926Z,0.40
2023-01-11T04:41:36.491Z,0.30
2023-01-11T04:44:04.481Z,0.40
2023-01-11T04:46:32.539Z,0.20
2023-01-11T04:49:00.915Z,0.40
2023-01-11T04:51:28.999Z,0.50
2023-01-11T04:53:58.619Z,0.20
2023-01-11T04:56:26.724Z,0.43
2023-01-11T04:58:55.591Z,0.27
2023-01-11T05:01:23.656Z,0.43
2023-01-11T05:03:52.182Z,0.27
2023-01-11T05:06:22.394Z,0.60
2023-01-11T05:08:50.814Z,0.50
2023-01-11T05:11:20.439Z,0.40
2023-01-11T05:13:48.542Z,0.50
2023-01-11T05:16:19.342Z,0.20
2023-01-11T05:18:50.535Z,0.30
2023-01-11T05:21:20.972Z,0.30
2023-01-11T05:23:49.782Z,0.40
2023-01-11T05:26:22.783Z,0.30
2023-01-11T05:28:52.219Z,0.30
2023-01-11T05:31:20.421Z,0.40
2023-01-11T05:33:49.090Z,0.43
2023-01-11T05:36:20.680Z,0.50
2023-01-11T05:38:51.069Z,0.30
2023-01-11T05:41:26.776Z,0.40
2023-01-11T05:44:14.074Z,0.43
2023-01-11T05:46:44.648Z,0.30
2023-01-11T05:49:14.705Z,0.20
2023-01-11T05:51:44.142Z,0.67
2023-01-11T05:54:15.463Z,0.47
2023-01-11T05:56:44.887Z,0.57
2023-01-11T05:59:13.526Z,0.30
2023-01-11T06:01:41.903Z,0.40
2023-01-11T06:04:09.946Z,0.33
2023-01-11T06:06:38.402Z,1.07
2023-01-11T06:09:06.541Z,0.50
2023-01-11T06:11:34.574Z,0.50
2023-01-11T06:14:03.922Z,0.43
2023-01-11T06:16:32.049Z,1.80
2023-01-11T06:19:00.136Z,2.20
2023-01-11T06:21:28.500Z,1.40
2023-01-11T06:23:56.537Z,0.73
2023-01-11T06:26:25.152Z,0.40
2023-01-11T06:28:53.450Z,0.20
2023-01-11T06:31:22.832Z,0.40
2023-01-11T06:33:50.865Z,0.30
2023-01-11T06:36:20.073Z,0.43
2023-01-11T06:38:48.157Z,0.60
2023-01-11T06:41:16.686Z,0.47
2023-01-11T06:43:44.889Z,0.47
2023-01-11T06:46:14.619Z,0.50
2023-01-11T06:48:44.421Z,0.20
2023-01-11T06:51:13.324Z,0.77
2023-01-11T06:53:42.576Z,0.80
2023-01-11T06:56:14.726Z,0.43
2023-01-11T06:58:45.581Z,0.50
2023-01-11T07:01:15.094Z,0.30
2023-01-11T07:03:48.980Z,0.30
2023-01-11T07:06:17.421Z,0.40
2023-01-11T07:08:45.452Z,0.30
2023-01-11T07:11:14.052Z,0.37
2023-01-11T07:13:42.277Z,0.47
2023-01-11T07:16:10.470Z,0.40
2023-01-11T07:18:38.555Z,0.47
2023-01-11T07:21:08.046Z,0.40
2023-01-11T07:23:36.261Z,0.40
2023-01-11T07:26:04.310Z,0.30
2023-01-11T07:28:32.473Z,0.40
2023-01-11T07:31:00.589Z,0.53
2023-01-11T07:33:28.855Z,0.40
2023-01-11T07:35:58.147Z,0.40
2023-01-11T07:38:29.244Z,0.20
2023-01-11T07:40:57.379Z,0.50
2023-01-11T07:43:24.459Z,0.30
2023-01-11T07:45:53.980Z,0.50
2023-01-11T07:48:26.382Z,1.00
2023-01-11T07:50:55.821Z,0.23
2023-01-11T07:53:26.303Z,0.50
2023-01-11T07:55:56.492Z,0.60
2023-01-11T07:58:25.045Z,0.50
2023-01-11T08:00:53.248Z,0.57
2023-01-11T08:03:21.434Z,0.77
2023-01-11T08:05:52.453Z,0.60
2023-01-11T08:08:21.019Z,0.40
2023-01-11T08:11:09.058Z,0.60
2023-01-11T08:13:56.168Z,0.57
2023-01-11T08:16:24.765Z,0.60
2023-01-11T08:18:52.841Z,0.70
2023-01-11T08:21:21.360Z,0.63
2023-01-11T08:23:49.599Z,0.40
2023-01-11T08:26:18.032Z,0.77
2023-01-11T08:28:48.413Z,0.60
2023-01-11T08:31:16.809Z,0.57
2023-01-11T08:33:45.006Z,0.30
2023-01-11T08:38:43.164Z,0.53
2023-01-11T08:41:11.622Z,0.70
2023-01-11T08:43:40.500Z,0.33
2023-01-11T08:46:10.647Z,0.40
2023-01-11T08:48:38.734Z,0.60
2023-01-11T08:51:07.264Z,0.70
2023-01-11T08:53:35.290Z,1.90
2023-01-11T08:56:04.513Z,0.53
2023-01-11T08:58:32.532Z,0.30
2023-01-11T09:01:02.796Z,1.23
2023-01-11T09:03:32.556Z,0.60
2023-01-11T09:06:00.726Z,0.83
2023-01-11T09:08:29.660Z,1.40
2023-01-11T09:10:59.776Z,0.60
2023-01-11T09:13:28.493Z,0.83
2023-01-11T09:15:57.997Z,0.63
2023-01-11T09:18:26.820Z,0.50
2023-01-11T09:20:56.210Z,0.47
2023-01-11T09:23:24.215Z,0.50
2023-01-11T09:25:52.273Z,0.57
2023-01-11T09:28:20.408Z,1.23
2023-01-11T09:30:48.411Z,0.70
2023-01-11T09:33:16.532Z,0.40
2023-01-11T09:35:46.166Z,0.43
2023-01-11T09:38:15.598Z,0.60
2023-01-11T09:40:55.719Z,0.40
2023-01-11T09:43:28.680Z,0.50
2023-01-11T09:46:00.555Z,0.50
2023-01-11T09:48:37.240Z,0.60
2023-01-11T09:51:06.140Z,0.40
2023-01-11T09:53:38.424Z,0.70
2023-01-11T09:56:14.086Z,0.50
2023-01-11T09:58:56.412Z,0.60
2023-01-11T10:01:33.752Z,1.97
2023-01-11T10:04:53.452Z,1.70
2023-01-11T10:18:30.650Z,0.50
2023-01-11T10:19:40.203Z,0.70
2023-01-11T10:22:17.859Z,0.70
2023-01-11T10:24:51.117Z,0.63
2023-01-11T10:27:31.384Z,0.50
2023-01-11T10:30:17.699Z,0.50
2023-01-11T10:33:10.082Z,0.80
2023-01-11T10:35:58.909Z,0.47
2023-01-11T10:38:46.366Z,0.50
2023-01-11T10:41:26.125Z,0.60
2023-01-11T10:44:10.538Z,0.53
2023-01-11T10:46:43.735Z,0.67
2023-01-11T10:49:35.705Z,0.60
2023-01-11T10:52:23.509Z,0.60
2023-01-11T10:54:55.838Z,0.40
2023-01-11T10:57:59.497Z,0.60
2023-01-11T11:00:38.179Z,0.50
2023-01-11T11:03:37.625Z,0.80
2023-01-11T11:06:13.694Z,0.37
2023-01-11T11:08:53.982Z,0.47
2023-01-11T11:11:28.398Z,0.50
2023-01-11T11:14:03.671Z,0.50
2023-01-11T11:16:54.335Z,0.50
2023-01-11T11:19:26.347Z,0.67
2023-01-11T11:21:54.507Z,0.70
2023-01-11T11:24:32.420Z,0.70
2023-01-11T11:27:10.103Z,0.60
2023-01-11T11:29:44.593Z,0.80
2023-01-11T11:32:24.607Z,0.60
2023-01-11T11:34:53.842Z,0.60
2023-01-11T11:37:26.067Z,0.63
2023-01-11T11:39:56.214Z,0.50
2023-01-11T11:42:24.865Z,0.50
2023-01-11T11:45:16.947Z,0.67
2023-01-11T11:48:02.902Z,1.27
2023-01-11T11:50:44.297Z,0.80
2023-01-11T11:53:27.594Z,0.73
2023-01-11T11:55:56.125Z,0.63
2023-01-11T11:58:26.832Z,0.50
2023-01-11T12:00:55.811Z,0.50
2023-01-11T12:03:30.506Z,0.40
2023-01-11T12:06:01.801Z,0.50
2023-01-11T12:08:33.328Z,0.30
2023-01-11T12:11:05.034Z,0.33
2023-01-11T12:13:35.765Z,0.20
2023-01-11T12:16:07.467Z,1.53
2023-01-11T12:18:43.382Z,2.97
2023-01-11T12:21:21.148Z,1.43
2023-01-11T12:23:49.757Z,0.60
2023-01-11T12:26:22.853Z,0.40
2023-01-11T12:29:31.552Z,0.30
2023-01-11T12:32:14.778Z,0.50
2023-01-11T12:35:19.585Z,0.37
2023-01-11T12:38:24.169Z,0.30
2023-01-11T12:41:21.691Z,0.40
2023-01-11T12:44:05.137Z,0.40
2023-01-11T12:46:54.457Z,0.40
2023-01-11T12:49:40.691Z,0.20
2023-01-11T12:52:46.122Z,0.33
2023-01-11T12:55:30.435Z,0.27
2023-01-11T12:58:08.098Z,0.30
2023-01-11T13:00:59.898Z,0.30
2023-01-11T13:04:00.305Z,0.50
2023-01-11T13:06:38.106Z,0.50
2023-01-11T13:09:17.483Z,0.40
2023-01-11T13:11:59.730Z,0.20
2023-01-11T13:14:49.914Z,0.43
2023-01-11T13:17:29.035Z,1.33
2023-01-11T13:20:14.867Z,0.60
2023-01-11T13:22:50.021Z,0.37
2023-01-11T13:25:25.299Z,0.40
2023-01-11T13:27:55.499Z,0.40
2023-01-11T13:30:25.449Z,0.40
2023-01-11T13:32:59.171Z,0.50
2023-01-11T13:35:37.730Z,0.50
2023-01-11T13:38:17.096Z,0.50
2023-01-11T13:40:51.201Z,0.40
2023-01-11T13:43:26.816Z,0.37
2023-01-11T13:46:03.671Z,0.40
2023-01-11T13:48:38.481Z,0.40
2023-01-11T13:51:16.568Z,0.47
2023-01-11T13:53:54.392Z,0.40
2023-01-11T13:56:31.250Z,0.50
2023-01-11T13:59:06.459Z,0.40
2023-01-11T14:01:47.470Z,0.20
2023-01-11T14:04:23.035Z,0.50
2023-01-11T14:07:14.138Z,0.20
2023-01-11T14:10:27.202Z,0.40
2023-01-11T14:13:39.132Z,0.30
2023-01-11T14:16:15.258Z,0.20
2023-01-11T14:18:52.343Z,0.40
2023-01-11T14:21:31.167Z,0.30
2023-01-11T14:24:01.542Z,0.47
2023-01-11T14:26:54.633Z,0.83
2023-01-11T14:29:58.979Z,1.20
2023-01-11T14:33:01.342Z,0.50
2023-01-11T14:36:07.764Z,0.30
2023-01-11T14:39:40.892Z,0.17
2023-01-11T14:42:35.668Z,0.17
2023-01-11T14:45:20.155Z,0.20
2023-01-11T14:48:21.516Z,0.33
2023-01-11T14:51:11.657Z,0.20
2023-01-11T14:53:47.038Z,0.70
2023-01-11T14:56:47.584Z,0.47
2023-01-11T14:59:36.654Z,0.40
2023-01-11T15:02:17.263Z,0.50
2023-01-11T15:05:08.554Z,0.33
2023-01-11T15:07:42.912Z,1.53
2023-01-11T15:10:58.705Z,0.60
2023-01-11T15:13:32.586Z,0.63
2023-01-11T15:16:39.750Z,0.70
2023-01-11T15:19:13.573Z,0.40
2023-01-11T15:21:49.899Z,0.60
2023-01-11T15:24:28.888Z,0.63
2023-01-11T15:26:59.593Z,0.87
2023-01-11T15:29:31.018Z,0.70
2023-01-11T15:32:18.631Z,0.40
2023-01-11T15:34:49.540Z,0.73
2023-01-11T15:37:45.717Z,0.53
2023-01-11T15:40:24.771Z,0.83
2023-01-11T15:43:47.702Z,0.80
2023-01-11T15:47:01.480Z,0.90
2023-01-11T15:50:29.717Z,0.80
2023-01-11T15:53:29.563Z,0.97
2023-01-11T15:56:52.660Z,0.73
2023-01-11T16:00:19.130Z,0.63
2023-01-11T16:03:40.991Z,0.60
2023-01-11T16:06:19.694Z,0.70
2023-01-11T16:08:59.896Z,0.80
2023-01-11T16:11:39.210Z,1.10
2023-01-11T16:14:40.107Z,3.60
2023-01-11T16:17:14.071Z,2.57
2023-01-11T16:19:45.957Z,1.30
2023-01-11T16:22:19.632Z,1.07
2023-01-11T16:24:53.707Z,0.77
2023-01-11T16:27:27.561Z,1.07
2023-01-11T16:29:56.156Z,1.00
2023-01-11T16:32:26.954Z,0.80
2023-01-11T16:34:56.243Z,1.83
2023-01-11T16:37:31.383Z,3.10
2023-01-11T16:40:17.235Z,4.53
2023-01-11T16:42:52.090Z,6.17
2023-01-11T16:45:22.486Z,13.40
2023-01-11T16:48:05.758Z,16.63
2023-01-11T16:50:35.427Z,8.90
2023-01-11T16:53:06.235Z,13.00
2023-01-11T16:55:39.907Z,7.10
2023-01-11T16:58:22.976Z,8.07
2023-01-11T17:00:59.914Z,3.40
2023-01-11T17:03:31.991Z,1.87
2023-01-11T17:06:15.450Z,1.30
2023-01-11T17:08:47.315Z,1.30
2023-01-11T17:11:27.359Z,1.10
2023-01-11T17:14:25.276Z,0.60
2023-01-11T17:17:00.214Z,1.20
2023-01-11T17:19:31.032Z,1.13
2023-01-11T17:22:06.669Z,1.03
2023-01-11T17:24:42.638Z,1.20
2023-01-11T17:27:19.948Z,1.00
2023-01-11T17:29:49.920Z,1.40
2023-01-11T17:32:24.099Z,1.37
2023-01-11T17:34:53.859Z,1.00
2023-01-11T17:37:22.755Z,1.10
2023-01-11T17:39:53.956Z,0.90
2023-01-11T17:42:40.711Z,1.00
2023-01-11T17:45:21.135Z,1.50
2023-01-11T17:47:53.609Z,1.73
2023-01-11T17:50:29.959Z,2.00
2023-01-11T17:53:07.576Z,1.30
2023-01-11T17:55:36.908Z,4.07
2023-01-11T17:58:21.450Z,2.83
2023-01-11T18:01:22.357Z,1.33
2023-01-11T18:03:55.034Z,1.43
2023-01-11T18:06:35.004Z,1.30
2023-01-11T18:09:07.420Z,1.57
2023-01-11T18:11:40.438Z,1.17
2023-01-11T18:14:19.442Z,0.90
2023-01-11T18:17:00.756Z,1.00
2023-01-11T18:19:35.640Z,0.70
2023-01-11T18:22:05.404Z,0.90
2023-01-11T18:24:43.219Z,0.90
2023-01-11T18:27:28.392Z,0.77
2023-01-11T18:30:02.745Z,1.23
2023-01-11T18:32:37.563Z,0.90
2023-01-11T18:35:18.333Z,1.37
2023-01-11T18:37:46.783Z,1.37
2023-01-11T18:40:17.054Z,1.20
2023-01-11T18:42:49.129Z,1.20
2023-01-11T18:45:17.923Z,1.33
2023-01-11T18:47:46.134Z,1.17
2023-01-11T18:50:15.067Z,0.97
2023-01-11T18:52:43.116Z,1.10
2023-01-11T18:55:12.734Z,1.20
2023-01-11T18:57:41.773Z,0.90
2023-01-11T19:00:16.730Z,1.07
2023-01-11T19:02:45.595Z,1.00
2023-01-11T19:05:16.655Z,1.07
2023-01-11T19:07:44.873Z,1.50
2023-01-11T19:10:16.701Z,3.60
2023-01-11T19:12:45.677Z,3.77
2023-01-11T19:15:16.338Z,4.23
2023-01-11T19:17:44.605Z,3.40
2023-01-11T19:20:14.075Z,1.93
2023-01-11T19:22:42.713Z,2.13
2023-01-11T19:25:12.390Z,1.30
2023-01-11T19:27:40.458Z,2.23
2023-01-11T19:30:12.259Z,2.37
2023-01-11T19:32:41.606Z,2.77
2023-01-11T19:35:11.036Z,1.83
2023-01-11T19:37:39.533Z,1.77
2023-01-11T19:40:10.344Z,1.70
2023-01-11T19:42:40.099Z,1.10
2023-01-11T19:45:10.455Z,1.07
2023-01-11T19:47:39.596Z,1.20
2023-01-11T19:50:11.620Z,0.90
2023-01-11T19:52:40.055Z,1.60
2023-01-11T19:55:09.754Z,2.20
2023-01-11T19:57:37.989Z,1.33
2023-01-11T20:00:07.238Z,1.20
2023-01-11T20:02:42.597Z,1.13
2023-01-11T20:05:13.463Z,1.50
2023-01-11T20:07:41.520Z,1.47
2023-01-11T20:10:11.155Z,1.63
2023-01-11T20:12:39.239Z,2.10
2023-01-11T20:15:09.191Z,1.90
2023-01-11T20:17:37.904Z,2.43
2023-01-11T20:20:07.712Z,1.20
2023-01-11T20:22:37.589Z,1.30
2023-01-11T20:25:07.199Z,1.77
2023-01-11T20:27:35.445Z,1.60
2023-01-11T20:30:03.492Z,1.87
2023-01-11T20:32:41.535Z,1.30
2023-01-11T20:35:11.584Z,1.70
2023-01-11T20:37:41.098Z,1.73
2023-01-11T20:40:14.157Z,1.60
2023-01-11T20:42:42.557Z,2.93
2023-01-11T20:45:12.283Z,2.43
2023-01-11T20:47:40.327Z,2.23
2023-01-11T20:50:10.051Z,2.17
2023-01-11T20:52:38.175Z,2.50
2023-01-11T20:55:09.289Z,2.33
2023-01-11T20:57:37.278Z,2.43
2023-01-11T21:02:38.152Z,1.90
2023-01-11T21:05:07.206Z,2.27
2023-01-11T21:07:35.295Z,2.73
2023-01-11T21:10:03.402Z,2.50
2023-01-11T21:12:32.771Z,3.07
2023-01-11T21:15:00.762Z,1.60
2023-01-11T21:17:28.744Z,2.27
2023-01-11T21:19:56.687Z,1.67
2023-01-11T21:22:24.735Z,1.57
2023-01-11T21:24:52.738Z,1.03
2023-01-11T21:27:20.863Z,1.00
2023-01-11T21:29:50.367Z,1.40
2023-01-11T21:32:18.417Z,1.00
2023-01-11T21:34:46.453Z,0.90
2023-01-11T21:37:14.499Z,1.20
2023-01-11T21:39:42.575Z,1.30
2023-01-11T21:42:10.575Z,1.37
2023-01-11T21:44:38.591Z,0.97
2023-01-11T21:47:08.324Z,1.30
2023-01-11T21:49:36.354Z,1.40
2023-01-11T21:52:04.501Z,1.47
2023-01-11T21:54:32.620Z,1.10
2023-01-11T21:57:00.900Z,1.77
2023-01-11T21:59:29.993Z,1.00
2023-01-11T22:01:58.657Z,1.20
2023-01-11T22:04:28.004Z,1.30
2023-01-11T22:06:57.208Z,0.87
2023-01-11T22:09:26.751Z,0.70
2023-01-11T22:11:55.390Z,0.87
2023-01-11T22:14:23.488Z,0.90
2023-01-11T22:16:51.878Z,1.50
2023-01-11T22:19:20.628Z,1.40
2023-01-11T22:21:50.054Z,1.10
2023-01-11T22:24:18.358Z,1.20
2023-01-11T22:26:46.448Z,1.17
2023-01-11T22:29:15.727Z,1.23
2023-01-11T22:31:47.863Z,1.43
2023-01-11T22:34:16.523Z,1.63
2023-01-11T22:36:45.594Z,1.00
2023-01-11T22:39:17.164Z,0.80
2023-01-11T22:41:46.184Z,1.00
2023-01-11T22:44:15.496Z,0.57
2023-01-11T22:46:44.199Z,1.43
2023-01-11T22:49:12.989Z,1.00
2023-01-11T22:51:42.710Z,0.60
2023-01-11T22:54:11.429Z,1.20
2023-01-11T22:56:41.491Z,0.90
2023-01-11T22:59:09.996Z,1.03
2023-01-11T23:01:40.841Z,0.63
2023-01-11T23:04:13.121Z,0.93
2023-01-11T23:06:43.069Z,0.73
2023-01-11T23:09:16.207Z,0.80
2023-01-11T23:12:04.371Z,0.97
2023-01-11T23:14:33.766Z,1.03
2023-01-11T23:17:05.124Z,1.00
2023-01-11T23:19:33.748Z,1.63
2023-01-11T23:22:01.797Z,0.87
2023-01-11T23:24:29.956Z,1.10
2023-01-11T23:26:59.532Z,0.90
2023-01-11T23:29:27.770Z,0.70
2023-01-11T23:31:55.946Z,0.90
2023-01-11T23:34:24.501Z,1.00
2023-01-11T23:36:52.524Z,1.10
2023-01-11T23:39:20.905Z,0.90
2023-01-11T23:42:06.631Z,1.13
2023-01-11T23:44:36.289Z,0.90
2023-01-11T23:47:23.618Z,0.87
2023-01-11T23:49:53.534Z,1.30
2023-01-11T23:52:24.508Z,1.50
2023-01-11T23:54:52.934Z,0.93
2023-01-11T23:57:25.501Z,1.10
2023-01-11T23:59:54.971Z,1.23
